createdAt,value
2023-05-01T00:01:57.816Z,98150.06
2023-05-01T00:03:59.343Z,98149.25
2023-05-01T00:06:01.239Z,98147.44
2023-05-01T00:08:03.296Z,98153.41
2023-05-01T00:10:04.651Z,98147.44
2023-05-01T00:12:05.962Z,98138.91
2023-05-01T00:14:07.290Z,98138.91
2023-05-01T00:16:08.720Z,98144.97
2023-05-01T00:18:10.058Z,98143.31
2023-05-01T00:20:11.392Z,98138.25
2023-05-01T00:22:12.724Z,98143.41
2023-05-01T00:24:14.100Z,98137.47
2023-05-01T00:26:15.391Z,98136.59
2023-05-01T00:28:16.845Z,98144.28
2023-05-01T00:30:18.187Z,98137.47
2023-05-01T00:32:19.740Z,98134.97
2023-05-01T00:34:21.094Z,98128.13
2023-05-01T00:36:22.416Z,98130.69
2023-05-01T00:38:24.349Z,98128.13
2023-05-01T00:40:25.790Z,98127.22
2023-05-01T00:42:27.142Z,98122.94
2023-05-01T00:44:28.474Z,98117.75
2023-05-01T00:46:30.380Z,98121.03
2023-05-01T00:48:31.794Z,98116.78
2023-05-01T00:50:33.274Z,98119.34
2023-05-01T00:52:34.603Z,98116.78
2023-05-01T00:54:35.942Z,98114.22
2023-05-01T00:56:37.352Z,98114.22
2023-05-01T00:58:38.665Z,98109.03
2023-05-01T01:00:39.986Z,98109.84
2023-05-01T01:02:41.326Z,98099.72
2023-05-01T01:04:42.904Z,98101.38
2023-05-01T01:06:44.308Z,98102.22
2023-05-01T01:08:45.706Z,98101.38
2023-05-01T01:10:47.018Z,98108.97
2023-05-01T01:12:48.368Z,98108.13
2023-05-01T01:14:49.800Z,98096.25
2023-05-01T01:16:51.133Z,98097.97
2023-05-01T01:18:53.008Z,98108.97
2023-05-01T01:20:54.312Z,98102.97
2023-05-01T01:22:55.883Z,98103.75
2023-05-01T01:24:58.036Z,98106.38
2023-05-01T01:26:59.360Z,98099.53
2023-05-01T01:29:00.697Z,98102.09
2023-05-01T01:31:02.221Z,98099.53
2023-05-01T01:33:03.601Z,98097.84
2023-05-01T01:35:04.974Z,98097.84
2023-05-01T01:37:06.325Z,98092.78
2023-05-01T01:39:08.021Z,98096.16
2023-05-01T01:41:09.351Z,98091.03
2023-05-01T01:43:10.680Z,98074.84
2023-05-01T01:45:12.021Z,98078.13
2023-05-01T01:47:13.399Z,98078.84
2023-05-01T01:49:14.758Z,98086.47
2023-05-01T01:51:16.068Z,98081.31
2023-05-01T01:53:17.574Z,98075.31
2023-05-01T01:55:18.894Z,98077.88
2023-05-01T01:57:20.183Z,98074.44
2023-05-01T01:59:21.475Z,98079.50
2023-05-01T02:01:22.808Z,98078.59
2023-05-01T02:03:24.282Z,98070.06
2023-05-01T02:05:25.748Z,98067.44
2023-05-01T02:07:27.117Z,98065.72
2023-05-01T02:09:28.409Z,98069.13
2023-05-01T02:11:29.822Z,98060.59
2023-05-01T02:13:31.316Z,98064.81
2023-05-01T02:15:32.679Z,98066.56
2023-05-01T02:17:34.044Z,98057.22
2023-05-01T02:19:35.396Z,98056.41
2023-05-01T02:21:36.808Z,98052.09
2023-05-01T02:23:38.095Z,98052.94
2023-05-01T02:25:39.477Z,98049.53
2023-05-01T02:27:41.132Z,98049.56
2023-05-01T02:29:42.969Z,98046.19
2023-05-01T02:31:44.436Z,98039.31
2023-05-01T02:33:45.771Z,98042.63
2023-05-01T02:35:50.210Z,98036.69
2023-05-01T02:37:51.588Z,98038.44
2023-05-01T02:39:52.907Z,98042.66
2023-05-01T02:41:55.105Z,98035.06
2023-05-01T02:43:56.934Z,98033.31
2023-05-01T02:45:58.771Z,98039.31
2023-05-01T02:48:00.187Z,98035.91
2023-05-01T02:50:02.245Z,98032.50
2023-05-01T02:52:04.585Z,98040.16
2023-05-01T02:54:05.927Z,98041.88
2023-05-01T02:56:07.972Z,98044.53
2023-05-01T02:58:09.325Z,98029.28
2023-05-01T03:00:14.059Z,98036.09
2023-05-01T03:02:15.956Z,98025.81
2023-05-01T03:04:17.594Z,98016.41
2023-05-01T03:06:19.531Z,98022.41
2023-05-01T03:08:20.879Z,98030.25
2023-05-01T03:10:22.360Z,98023.53
2023-05-01T03:12:23.679Z,98021.88
2023-05-01T03:14:25.226Z,98020.22
2023-05-01T03:16:27.042Z,98022.81
2023-05-01T03:18:28.380Z,98024.50
2023-05-01T03:20:29.972Z,98020.25
2023-05-01T03:22:33.194Z,98025.34
2023-05-01T03:24:34.545Z,98020.31
2023-05-01T03:26:35.858Z,98018.59
2023-05-01T03:28:37.163Z,98018.59
2023-05-01T03:30:38.500Z,98013.50
2023-05-01T03:32:39.935Z,98018.59
2023-05-01T03:34:41.377Z,98018.59
2023-05-01T03:36:42.723Z,98020.31
2023-05-01T03:38:44.124Z,98020.31
2023-05-01T03:40:45.500Z,98013.50
2023-05-01T03:42:46.847Z,98010.88
2023-05-01T03:44:48.213Z,98010.81
2023-05-01T03:46:49.545Z,98016.78
2023-05-01T03:48:50.879Z,98011.59
2023-05-01T03:50:52.318Z,98006.47
2023-05-01T03:52:53.628Z,98005.63
2023-05-01T03:54:54.931Z,98009.03
2023-05-01T03:56:56.452Z,98009.88
2023-05-01T03:58:57.980Z,98006.47
2023-05-01T04:01:00.901Z,98027.69
2023-05-01T04:03:02.743Z,98011.38
2023-05-01T04:05:04.187Z,98009.59
2023-05-01T04:07:05.699Z,98011.31
2023-05-01T04:09:07.155Z,98012.28
2023-05-01T04:11:08.516Z,98012.38
2023-05-01T04:13:10.850Z,98002.28
2023-05-01T04:15:13.661Z,98004.13
2023-05-01T04:17:16.181Z,98009.31
2023-05-01T04:19:17.502Z,98004.25
2023-05-01T04:21:18.958Z,98007.72
2023-05-01T04:23:21.427Z,98006.03
2023-05-01T04:25:23.824Z,98002.69
2023-05-01T04:27:25.217Z,98006.94
2023-05-01T04:29:26.548Z,98005.19
2023-05-01T04:31:27.957Z,98010.22
2023-05-01T04:33:29.299Z,98005.03
2023-05-01T04:35:30.599Z,98003.19
2023-05-01T04:37:31.896Z,97998.97
2023-05-01T04:39:33.184Z,98001.41
2023-05-01T04:41:34.557Z,97998.81
2023-05-01T04:43:35.923Z,97995.25
2023-05-01T04:45:37.310Z,97996.06
2023-05-01T04:47:38.694Z,97993.47
2023-05-01T04:49:40.054Z,97996.88
2023-05-01T04:51:41.356Z,97991.72
2023-05-01T04:53:42.781Z,97992.56
2023-05-01T04:55:44.114Z,97997.63
2023-05-01T04:57:46.172Z,97995.84
2023-05-01T04:59:48.365Z,97998.41
2023-05-01T05:01:49.707Z,97997.53
2023-05-01T05:03:51.295Z,97998.34
2023-05-01T05:05:52.908Z,97989.88
2023-05-01T05:07:54.242Z,97990.72
2023-05-01T05:09:56.176Z,98000.75
2023-05-01T05:11:57.653Z,97991.25
2023-05-01T05:13:59.124Z,97997.28
2023-05-01T05:16:00.968Z,97994.75
2023-05-01T05:18:02.488Z,97997.31
2023-05-01T05:20:04.028Z,97998.19
2023-05-01T05:22:05.601Z,97994.75
2023-05-01T05:24:06.902Z,97998.16
2023-05-01T05:26:08.238Z,97987.97
2023-05-01T05:28:09.568Z,97989.72
2023-05-01T05:30:10.891Z,97980.44
2023-05-01T05:32:12.219Z,97979.63
2023-05-01T05:34:13.643Z,97972.81
2023-05-01T05:36:14.945Z,97970.28
2023-05-01T05:38:16.238Z,97971.19
2023-05-01T05:40:17.641Z,97971.22
2023-05-01T05:42:18.951Z,97974.66
2023-05-01T05:44:20.818Z,97977.28
2023-05-01T05:46:22.185Z,97969.69
2023-05-01T05:48:23.562Z,97966.34
2023-05-01T05:50:24.959Z,97970.69
2023-05-01T05:52:26.300Z,97972.09
2023-05-01T05:54:27.796Z,97974.66
2023-05-01T05:56:29.092Z,97973.31
2023-05-01T05:58:30.589Z,97971.81
2023-05-01T06:00:31.996Z,97962.66
2023-05-01T06:02:33.393Z,97970.38
2023-05-01T06:04:34.802Z,97970.44
2023-05-01T06:06:36.219Z,97961.94
2023-05-01T06:08:37.889Z,97964.47
2023-05-01T06:10:39.552Z,97967.91
2023-05-01T06:12:44.528Z,97961.94
2023-05-01T06:14:52.557Z,97962.72
2023-05-01T06:16:53.899Z,97960.16
2023-05-01T06:18:55.249Z,97962.59
2023-05-01T06:20:56.714Z,97963.38
2023-05-01T06:22:58.116Z,97962.44
2023-05-01T06:24:59.675Z,97958.94
2023-05-01T06:27:01.599Z,97963.94
2023-05-01T06:29:03.038Z,97951.09
2023-05-01T06:31:05.641Z,97970.63
2023-05-01T06:33:07.345Z,97953.28
2023-05-01T06:35:08.814Z,97953.81
2023-05-01T06:37:10.117Z,97964.28
2023-05-01T06:39:11.423Z,97958.47
2023-05-01T06:41:12.755Z,97955.13
2023-05-01T06:43:14.255Z,97961.09
2023-05-01T06:45:15.738Z,97949.25
2023-05-01T06:47:17.134Z,97960.38
2023-05-01T06:49:18.428Z,97958.78
2023-05-01T06:51:19.737Z,97961.38
2023-05-01T06:53:21.103Z,97958.91
2023-05-01T06:55:22.567Z,97950.47
2023-05-01T06:57:23.909Z,97959.03
2023-05-01T06:59:25.499Z,97958.25
2023-05-01T07:01:27.113Z,97954.06
2023-05-01T07:03:28.751Z,97959.22
2023-05-01T07:05:30.215Z,97952.44
2023-05-01T07:07:31.553Z,97949.03
2023-05-01T07:09:32.859Z,97949.88
2023-05-01T07:11:34.212Z,97938.84
2023-05-01T07:13:35.540Z,97943.06
2023-05-01T07:15:37.299Z,97944.84
2023-05-01T07:17:38.624Z,97936.38
2023-05-01T07:19:39.976Z,97933.84
2023-05-01T07:21:41.312Z,97928.84
2023-05-01T07:23:42.629Z,97933.97
2023-05-01T07:25:45.229Z,97937.41
2023-05-01T07:27:46.662Z,97928.91
2023-05-01T07:29:47.955Z,97927.22
2023-05-01T07:31:49.345Z,97918.69
2023-05-01T07:33:51.129Z,97922.94
2023-05-01T07:35:53.083Z,97928.00
2023-05-01T07:37:55.139Z,97928.84
2023-05-01T07:39:56.722Z,97926.22
2023-05-01T07:41:58.622Z,97936.31
2023-05-01T07:44:00.089Z,97913.16
2023-05-01T07:46:01.721Z,97919.84
2023-05-01T07:48:03.170Z,97927.38
2023-05-01T07:50:05.071Z,97922.25
2023-05-01T07:52:09.255Z,97925.59
2023-05-01T07:54:10.715Z,97923.97
2023-05-01T07:56:15.168Z,97918.84
2023-05-01T07:58:17.397Z,97917.09
2023-05-01T08:00:18.836Z,97905.44
2023-05-01T08:02:20.215Z,97909.41
2023-05-01T08:04:23.445Z,97917.00
2023-05-01T08:06:24.945Z,97902.44
2023-05-01T08:08:26.461Z,97910.03
2023-05-01T08:10:28.737Z,97916.81
2023-05-01T08:12:31.199Z,97909.06
2023-05-01T08:14:32.494Z,97914.16
2023-05-01T08:16:34.166Z,97912.41
2023-05-01T08:18:35.688Z,97915.81
2023-05-01T08:20:37.076Z,97908.19
2023-05-01T08:22:38.462Z,97903.94
2023-05-01T08:24:40.853Z,97931.22
2023-05-01T08:26:42.154Z,97905.72
2023-05-01T08:28:43.607Z,97904.00
2023-05-01T08:30:44.964Z,97904.91
2023-05-01T08:32:46.349Z,97903.28
2023-05-01T08:34:47.918Z,97893.97
2023-05-01T08:36:49.354Z,97902.22
2023-05-01T08:38:50.771Z,97911.75
2023-05-01T08:40:53.112Z,97899.84
2023-05-01T08:42:55.631Z,97896.72
2023-05-01T08:44:58.898Z,97898.59
2023-05-01T08:47:00.258Z,97898.53
2023-05-01T08:49:07.610Z,97900.16
2023-05-01T08:51:08.918Z,97895.41
2023-05-01T08:53:10.401Z,97900.56
2023-05-01T08:55:11.731Z,97893.66
2023-05-01T08:57:13.037Z,97893.00
2023-05-01T08:59:14.667Z,97898.09
2023-05-01T09:01:16.143Z,97889.88
2023-05-01T09:03:18.145Z,97893.94
2023-05-01T09:05:19.647Z,97888.84
2023-05-01T09:07:21.006Z,97889.06
2023-05-01T09:09:22.299Z,97886.59
2023-05-01T09:11:23.634Z,97882.59
2023-05-01T09:13:24.943Z,97877.59
2023-05-01T09:15:27.017Z,97883.13
2023-05-01T09:17:29.153Z,97877.81
2023-05-01T09:19:30.512Z,97884.88
2023-05-01T09:21:32.106Z,97888.66
2023-05-01T09:23:33.553Z,97878.56
2023-05-01T09:25:34.838Z,97870.34
2023-05-01T09:27:36.190Z,97878.47
2023-05-01T09:29:37.864Z,97876.50
2023-05-01T09:31:39.258Z,97869.41
2023-05-01T09:33:40.587Z,97864.09
2023-05-01T09:35:41.926Z,97863.13
2023-05-01T09:37:43.783Z,97848.63
2023-05-01T09:39:45.088Z,97850.28
2023-05-01T09:41:46.374Z,97848.63
2023-05-01T09:43:47.665Z,97843.50
2023-05-01T09:45:49.002Z,97847.81
2023-05-01T09:47:50.446Z,97846.16
2023-05-01T09:49:51.795Z,97845.38
2023-05-01T09:51:53.096Z,97830.91
2023-05-01T09:53:54.517Z,97845.31
2023-05-01T09:55:56.114Z,97837.59
2023-05-01T09:57:58.855Z,97840.91
2023-05-01T10:00:00.345Z,97840.75
2023-05-01T10:02:01.787Z,97827.06
2023-05-01T10:04:03.703Z,97831.19
2023-05-01T10:06:05.128Z,97831.16
2023-05-01T10:08:10.339Z,97837.94
2023-05-01T10:10:12.798Z,97824.34
2023-05-01T10:12:14.092Z,97828.63
2023-05-01T10:14:18.397Z,97824.34
2023-05-01T10:16:19.738Z,97820.16
2023-05-01T10:18:21.842Z,97820.16
2023-05-01T10:20:23.266Z,97810.00
2023-05-01T10:22:24.728Z,97810.09
2023-05-01T10:24:26.142Z,97819.47
2023-05-01T10:26:27.552Z,97806.75
2023-05-01T10:28:28.996Z,97808.53
2023-05-01T10:30:31.251Z,97806.00
2023-05-01T10:32:32.790Z,97799.25
2023-05-01T10:34:34.816Z,97800.06
2023-05-01T10:36:36.173Z,97793.19
2023-05-01T10:38:38.002Z,97794.75
2023-05-01T10:40:39.395Z,97788.75
2023-05-01T10:42:40.926Z,97779.41
2023-05-01T10:44:42.472Z,97777.66
2023-05-01T10:46:44.507Z,97780.19
2023-05-01T10:48:45.917Z,97774.31
2023-05-01T10:50:47.217Z,97778.59
2023-05-01T10:52:48.513Z,97780.38
2023-05-01T10:54:50.051Z,97778.72
2023-05-01T10:56:51.380Z,97776.19
2023-05-01T10:58:52.667Z,97768.56
2023-05-01T11:00:54.172Z,97771.22
2023-05-01T11:02:55.549Z,97760.28
2023-05-01T11:04:57.180Z,97762.84
2023-05-01T11:06:58.746Z,97763.69
2023-05-01T11:09:00.148Z,97755.16
2023-05-01T11:11:01.497Z,97749.28
2023-05-01T11:13:03.087Z,97756.13
2023-05-01T11:15:05.545Z,97748.44
2023-05-01T11:17:06.866Z,97741.69
2023-05-01T11:19:08.519Z,97745.03
2023-05-01T11:21:09.824Z,97750.97
2023-05-01T11:23:11.199Z,97736.53
2023-05-01T11:25:12.603Z,97735.72
2023-05-01T11:27:14.060Z,97727.28
2023-05-01T11:29:15.482Z,97727.28
2023-05-01T11:31:16.826Z,97724.75
2023-05-01T11:33:21.004Z,97721.94
2023-05-01T11:35:22.369Z,97728.56
2023-05-01T11:37:23.720Z,97721.56
2023-05-01T11:39:25.166Z,97713.84
2023-05-01T11:41:26.455Z,97700.91
2023-05-01T11:43:27.850Z,97705.94
2023-05-01T11:45:29.216Z,97705.09
2023-05-01T11:47:30.797Z,97588.06
2023-05-01T11:49:32.103Z,97704.47
2023-05-01T11:51:36.076Z,97701.13
2023-05-01T11:53:37.688Z,97691.84
2023-05-01T11:55:40.183Z,97702.13
2023-05-01T11:57:41.690Z,97691.06
2023-05-01T11:59:43.263Z,97687.66
2023-05-01T12:01:44.685Z,97679.97
2023-05-01T12:03:46.209Z,97679.13
2023-05-01T12:05:47.683Z,97675.66
2023-05-01T12:07:49.036Z,97678.06
2023-05-01T12:09:50.392Z,97668.44
2023-05-01T12:11:52.690Z,97660.63
2023-05-01T12:13:54.563Z,97663.84
2023-05-01T12:15:55.916Z,97656.03
2023-05-01T12:17:57.281Z,97651.69
2023-05-01T12:19:58.690Z,97657.47
2023-05-01T12:22:02.795Z,97655.63
2023-05-01T12:24:04.096Z,97648.56
2023-05-01T12:26:05.441Z,97643.44
2023-05-01T12:28:07.506Z,97643.38
2023-05-01T12:30:08.874Z,97633.13
2023-05-01T12:32:10.245Z,97637.47
2023-05-01T12:34:11.599Z,97630.66
2023-05-01T12:36:12.914Z,97626.53
2023-05-01T12:38:14.296Z,97619.91
2023-05-01T12:40:15.642Z,97619.97
2023-05-01T12:42:17.993Z,97624.25
2023-05-01T12:44:19.325Z,97616.56
2023-05-01T12:46:20.728Z,97608.13
2023-05-01T12:48:22.153Z,97598.00
2023-05-01T12:50:23.447Z,97598.06
2023-05-01T12:52:25.204Z,97600.63
2023-05-01T12:54:27.138Z,97593.84
2023-05-01T12:56:28.431Z,97584.53
2023-05-01T12:58:31.169Z,97588.84
2023-05-01T13:00:32.609Z,97585.56
2023-05-01T13:02:34.001Z,97576.25
2023-05-01T13:04:35.496Z,97580.63
2023-05-01T13:06:36.901Z,97579.84
2023-05-01T13:08:39.451Z,97577.31
2023-05-01T13:10:41.077Z,97573.13
2023-05-01T13:12:42.644Z,97564.69
2023-05-01T13:14:43.991Z,97562.19
2023-05-01T13:16:46.443Z,97559.59
2023-05-01T13:18:47.933Z,97560.44
2023-05-01T13:20:49.851Z,97559.59
2023-05-01T13:22:51.208Z,97557.03
2023-05-01T13:24:53.211Z,97545.09
2023-05-01T13:26:55.975Z,97540.03
2023-05-01T13:28:57.399Z,97544.34
2023-05-01T13:30:58.791Z,97541.88
2023-05-01T13:33:00.597Z,97545.38
2023-05-01T13:35:02.501Z,97538.63
2023-05-01T13:37:03.894Z,97530.97
2023-05-01T13:39:05.203Z,97538.69
2023-05-01T13:41:06.490Z,97534.47
2023-05-01T13:43:07.802Z,97541.25
2023-05-01T13:45:09.398Z,97528.47
2023-05-01T13:47:10.703Z,97522.53
2023-05-01T13:49:12.036Z,97531.91
2023-05-01T13:51:13.563Z,97525.97
2023-05-01T13:53:14.865Z,97530.25
2023-05-01T13:55:16.187Z,97532.00
2023-05-01T13:57:17.706Z,97525.22
2023-05-01T13:59:19.133Z,97514.28
2023-05-01T14:01:23.900Z,97520.25
2023-05-01T14:03:25.347Z,97517.69
2023-05-01T14:05:28.074Z,97511.88
2023-05-01T14:07:29.406Z,97512.75
2023-05-01T14:09:30.806Z,97508.41
2023-05-01T14:11:32.324Z,97515.25
2023-05-01T14:13:33.628Z,97511.88
2023-05-01T14:15:35.073Z,97515.28
2023-05-01T14:17:37.860Z,97517.91
2023-05-01T14:19:39.244Z,97503.38
2023-05-01T14:21:40.552Z,97506.84
2023-05-01T14:23:45.246Z,97508.56
2023-05-01T14:25:46.765Z,97512.81
2023-05-01T14:27:48.854Z,97512.88
2023-05-01T14:29:50.179Z,97506.25
2023-05-01T14:31:52.712Z,97517.38
2023-05-01T14:33:54.122Z,97500.44
2023-05-01T14:35:55.738Z,97507.25
2023-05-01T14:37:57.076Z,97507.25
2023-05-01T14:39:58.370Z,97506.47
2023-05-01T14:41:59.712Z,97509.88
2023-05-01T14:44:01.005Z,97504.03
2023-05-01T14:46:02.417Z,97505.75
2023-05-01T14:48:04.216Z,97507.47
2023-05-01T14:50:06.301Z,97503.22
2023-05-01T14:52:09.346Z,97498.97
2023-05-01T14:54:11.602Z,97490.53
2023-05-01T14:56:12.879Z,97500.78
2023-05-01T14:58:14.216Z,97510.16
2023-05-01T15:00:15.684Z,97499.16
2023-05-01T15:02:17.166Z,97491.56
2023-05-01T15:04:19.027Z,97498.38
2023-05-01T15:06:20.445Z,97502.63
2023-05-01T15:08:21.826Z,97503.56
2023-05-01T15:10:23.867Z,97497.66
2023-05-01T15:12:25.360Z,97508.81
2023-05-01T15:14:27.262Z,97507.09
2023-05-01T15:16:28.635Z,97509.69
2023-05-01T15:18:29.948Z,97505.50
2023-05-01T15:20:31.315Z,97500.47
2023-05-01T15:22:32.703Z,97491.19
2023-05-01T15:24:34.019Z,97485.31
2023-05-01T15:26:35.443Z,97488.25
2023-05-01T15:28:36.752Z,97490.63
2023-05-01T15:30:38.100Z,97488.47
2023-05-01T15:32:39.491Z,97485.91
2023-05-01T15:34:42.675Z,97486.75
2023-05-01T15:36:44.093Z,97481.59
2023-05-01T15:38:45.439Z,97473.75
2023-05-01T15:40:46.728Z,97478.66
2023-05-01T15:42:48.198Z,97472.19
2023-05-01T15:44:52.571Z,97467.72
2023-05-01T15:46:53.966Z,97462.47
2023-05-01T15:48:55.476Z,97470.28
2023-05-01T15:50:56.875Z,97466.22
2023-05-01T15:52:58.234Z,97467.00
2023-05-01T15:54:59.546Z,97468.72
2023-05-01T15:57:03.585Z,97467.69
2023-05-01T15:59:04.912Z,97458.66
2023-05-01T16:01:06.349Z,97466.03
2023-05-01T16:03:08.329Z,97460.75
2023-05-01T16:05:10.044Z,97455.34
2023-05-01T16:07:11.621Z,97464.72
2023-05-01T16:09:12.923Z,97454.34
2023-05-01T16:11:14.350Z,97458.38
2023-05-01T16:13:18.326Z,97453.31
2023-05-01T16:15:19.647Z,97459.78
2023-05-01T16:17:21.029Z,97451.94
2023-05-01T16:19:22.401Z,97451.53
2023-05-01T16:21:24.628Z,97451.56
2023-05-01T16:23:26.719Z,97451.25
2023-05-01T16:25:28.036Z,97441.75
2023-05-01T16:27:29.346Z,97448.22
2023-05-01T16:29:30.676Z,97441.19
2023-05-01T16:31:41.329Z,97438.66
2023-05-01T16:33:42.676Z,97439.94
2023-05-01T16:35:47.134Z,97448.66
2023-05-01T16:37:48.467Z,97451.38
2023-05-01T16:39:49.974Z,97442.19
2023-05-01T16:41:51.263Z,97452.56
2023-05-01T16:43:52.683Z,97438.56
2023-05-01T16:45:56.936Z,97441.91
2023-05-01T16:47:58.468Z,97448.59
2023-05-01T16:50:00.268Z,97438.53
2023-05-01T16:52:04.808Z,97440.91
2023-05-01T16:54:06.529Z,97440.88
2023-05-01T16:56:09.658Z,97441.03
2023-05-01T16:58:11.086Z,97435.34
2023-05-01T17:00:12.488Z,97434.63
2023-05-01T17:02:13.882Z,97439.13
2023-05-01T17:04:15.686Z,97432.22
2023-05-01T17:06:17.100Z,97431.69
2023-05-01T17:08:18.424Z,97434.34
2023-05-01T17:10:19.734Z,97432.00
2023-05-01T17:12:21.085Z,97432.66
2023-05-01T17:14:25.088Z,97427.94
2023-05-01T17:16:26.438Z,97432.00
2023-05-01T17:18:30.927Z,97431.75
2023-05-01T17:20:32.341Z,97423.72
2023-05-01T17:22:33.655Z,97427.81
2023-05-01T17:24:34.958Z,97431.56
2023-05-01T17:26:39.166Z,97426.69
2023-05-01T17:28:40.625Z,97429.38
2023-05-01T17:30:41.917Z,97424.41
2023-05-01T17:32:43.459Z,97430.47
2023-05-01T17:34:44.932Z,97422.03
2023-05-01T17:36:47.691Z,97427.22
2023-05-01T17:38:50.268Z,97429.00
2023-05-01T17:40:54.662Z,97429.78
2023-05-01T17:42:55.962Z,97429.84
2023-05-01T17:45:06.109Z,97431.47
2023-05-01T17:47:07.416Z,97433.84
2023-05-01T17:49:08.833Z,97434.47
2023-05-01T17:51:22.105Z,97430.13
2023-05-01T17:53:23.402Z,97431.72
2023-05-01T17:55:25.726Z,97432.50
2023-05-01T17:57:27.845Z,97430.19
2023-05-01T17:59:30.709Z,97432.22
2023-05-01T18:01:32.134Z,97437.00
2023-05-01T18:03:33.792Z,97434.59
2023-05-01T18:05:35.269Z,97432.41
2023-05-01T18:07:36.754Z,97432.78
2023-05-01T18:09:40.732Z,97424.88
2023-05-01T18:11:42.076Z,97430.44
2023-05-01T18:13:53.730Z,97424.06
2023-05-01T18:15:55.893Z,97428.56
2023-05-01T18:17:57.427Z,97431.84
2023-05-01T18:19:58.990Z,97426.66
2023-05-01T18:22:01.127Z,97429.00
2023-05-01T18:24:03.297Z,97420.25
2023-05-01T18:26:05.112Z,97426.00
2023-05-01T18:28:07.384Z,97433.34
2023-05-01T18:30:08.826Z,97445.22
2023-05-01T18:32:12.844Z,97431.22
2023-05-01T18:34:19.457Z,97441.69
2023-05-01T18:36:20.782Z,97433.34
2023-05-01T18:38:22.223Z,97438.34
2023-05-01T18:40:23.581Z,97438.06
2023-05-01T18:42:24.885Z,97444.13
2023-05-01T18:44:26.784Z,97440.06
2023-05-01T18:46:30.892Z,97451.16
2023-05-01T18:48:32.248Z,97444.34
2023-05-01T18:50:33.789Z,97445.97
2023-05-01T18:52:37.130Z,97441.69
2023-05-01T18:54:38.670Z,97442.81
2023-05-01T18:56:40.018Z,97448.88
2023-05-01T18:58:41.312Z,97453.53
2023-05-01T19:00:42.610Z,97450.78
2023-05-01T19:02:44.696Z,97448.88
2023-05-01T19:06:50.528Z,97447.44
2023-05-01T19:08:57.768Z,97459.38
2023-05-01T19:10:59.100Z,97454.16
2023-05-01T19:13:00.433Z,97453.13
2023-05-01T19:15:01.810Z,97451.16
2023-05-01T19:17:03.812Z,97446.03
2023-05-01T19:19:05.114Z,97456.25
2023-05-01T19:21:06.761Z,97456.53
2023-05-01T19:23:08.076Z,97447.22
2023-05-01T19:25:09.364Z,97444.59
2023-05-01T19:27:11.699Z,97447.56
2023-05-01T19:29:13.041Z,97448.09
2023-05-01T19:31:14.843Z,97443.22
2023-05-01T19:33:16.347Z,97442.47
2023-05-01T19:35:17.741Z,97440.66
2023-05-01T19:37:19.054Z,97439.00
2023-05-01T19:39:20.603Z,97438.94
2023-05-01T19:41:21.902Z,97438.84
2023-05-01T19:43:23.195Z,97439.97
2023-05-01T19:45:24.502Z,97444.09
2023-05-01T19:47:25.893Z,97435.81
2023-05-01T19:49:27.834Z,97434.50
2023-05-01T19:51:29.865Z,97435.91
2023-05-01T19:53:34.171Z,97432.91
2023-05-01T19:55:35.560Z,97428.94
2023-05-01T19:57:36.859Z,97437.53
2023-05-01T19:59:46.894Z,97427.28
2023-05-01T20:01:48.335Z,97425.72
2023-05-01T20:03:49.717Z,97425.78
2023-05-01T20:05:51.158Z,97427.31
2023-05-01T20:09:53.852Z,97427.31
2023-05-01T20:11:55.148Z,97422.31
2023-05-01T20:13:56.565Z,97414.72
2023-05-01T20:15:57.905Z,97415.38
2023-05-01T20:18:00.186Z,97416.09
2023-05-01T20:20:01.604Z,97422.13
2023-05-01T20:22:03.293Z,97417.22
2023-05-01T20:24:04.627Z,97424.31
2023-05-01T20:26:05.966Z,97427.06
2023-05-01T20:28:07.302Z,97421.28
2023-05-01T20:30:11.683Z,97422.72
2023-05-01T20:32:12.982Z,97422.63
2023-05-01T20:34:14.286Z,97420.91
2023-05-01T20:36:19.997Z,97424.41
2023-05-01T20:38:21.940Z,97416.84
2023-05-01T20:40:26.096Z,97422.00
2023-05-01T20:42:27.909Z,97414.44
2023-05-01T20:44:29.464Z,97420.50
2023-05-01T20:46:30.996Z,97417.19
2023-05-01T20:48:32.316Z,97414.81
2023-05-01T20:50:33.728Z,97421.66
2023-05-01T20:52:38.301Z,97423.44
2023-05-01T20:54:39.605Z,97423.53
2023-05-01T20:56:40.988Z,97421.97
2023-05-01T20:58:42.313Z,97422.91
2023-05-01T21:00:43.654Z,97427.19
2023-05-01T21:02:45.149Z,97427.22
2023-05-01T21:04:46.671Z,97423.91
2023-05-01T21:06:48.021Z,97426.53
2023-05-01T21:08:49.340Z,97426.63
2023-05-01T21:10:50.629Z,97433.53
2023-05-01T21:12:51.953Z,97433.59
2023-05-01T21:14:53.260Z,97433.59
2023-05-01T21:16:54.980Z,97433.59
2023-05-01T21:18:56.363Z,97433.53
2023-05-01T21:20:57.660Z,97439.41
2023-05-01T21:22:59.054Z,97444.41
2023-05-01T21:25:00.428Z,97439.16
2023-05-01T21:27:03.107Z,97449.34
2023-05-01T21:29:04.453Z,97452.75
2023-05-01T21:31:05.884Z,97450.28
2023-05-01T21:33:07.387Z,97459.50
2023-05-01T21:35:09.910Z,97459.50
2023-05-01T21:37:13.835Z,97459.56
2023-05-01T21:39:15.608Z,97456.19
2023-05-01T21:41:16.927Z,97466.53
2023-05-01T21:43:18.266Z,97464.84
2023-05-01T21:45:19.580Z,97467.41
2023-05-01T21:47:23.791Z,97463.22
2023-05-01T21:49:25.218Z,97468.34
2023-05-01T21:51:28.408Z,97469.94
2023-05-01T21:53:30.000Z,97465.63
2023-05-01T21:55:31.339Z,97469.88
2023-05-01T21:57:32.694Z,97469.88
2023-05-01T21:59:33.993Z,97474.19
2023-05-01T22:01:35.512Z,97471.75
2023-05-01T22:03:36.989Z,97479.41
2023-05-01T22:05:41.020Z,97472.66
2023-05-01T22:07:42.487Z,97476.94
2023-05-01T22:09:43.978Z,97474.41
2023-05-01T22:11:45.299Z,97479.41
2023-05-01T22:13:46.615Z,97478.25
2023-05-01T22:15:48.886Z,97482.63
2023-05-01T22:17:50.337Z,97490.44
2023-05-01T22:19:51.766Z,97492.16
2023-05-01T22:21:53.087Z,97486.22
2023-05-01T22:23:55.437Z,97499.06
2023-05-01T22:26:00.163Z,97505.03
2023-05-01T22:28:04.263Z,97519.56
2023-05-01T22:30:05.600Z,97515.38
2023-05-01T22:32:07.115Z,97515.41
2023-05-01T22:34:08.971Z,97517.91
2023-05-01T22:36:10.312Z,97519.44
2023-05-01T22:38:11.607Z,97521.97
2023-05-01T22:40:13.087Z,97521.97
2023-05-01T22:42:14.423Z,97529.69
2023-05-01T22:44:15.719Z,97520.41
2023-05-01T22:46:17.302Z,97528.94
2023-05-01T22:48:18.713Z,97522.22
2023-05-01T22:50:20.101Z,97519.66
2023-05-01T22:52:21.516Z,97532.47
2023-05-01T22:54:22.812Z,97529.88
2023-05-01T22:56:26.118Z,97534.91
2023-05-01T22:58:27.545Z,97524.69
2023-05-01T23:00:28.976Z,97532.41
2023-05-01T23:02:30.366Z,97538.38
2023-05-01T23:04:32.349Z,97535.88
2023-05-01T23:06:33.805Z,97538.38
2023-05-01T23:08:35.158Z,97533.09
2023-05-01T23:10:36.504Z,97530.44
2023-05-01T23:12:38.115Z,97535.47
2023-05-01T23:14:39.411Z,97528.59
2023-05-01T23:16:41.701Z,97532.78
2023-05-01T23:18:43.266Z,97537.81
2023-05-01T23:20:44.576Z,97402.47
2023-05-01T23:22:46.208Z,97533.63
2023-05-01T23:24:50.553Z,97403.34
2023-05-01T23:26:51.856Z,97536.25
2023-05-01T23:28:53.279Z,97542.22
2023-05-01T23:30:55.590Z,97545.69
2023-05-01T23:32:57.253Z,97541.53
2023-05-01T23:34:58.562Z,97534.75
2023-05-01T23:36:59.861Z,97547.44
2023-05-01T23:39:01.412Z,97542.31
2023-05-01T23:41:02.759Z,97532.94
2023-05-01T23:43:04.057Z,97538.13
2023-05-01T23:45:05.444Z,97531.31
2023-05-01T23:47:06.846Z,97538.13
2023-05-01T23:49:08.287Z,97522.72
2023-05-01T23:51:09.667Z,97531.16
2023-05-01T23:53:11.002Z,97513.28
2023-05-01T23:55:12.486Z,97519.25